sensor_id;sensor_type;location;lat;lon;timestamp;pressure;altitude;pressure_sealevel;temperature;humidity
804;BME280;25687;49.976;8.240;2023-02-21T00:02:37;100594.69;;;4.96;100.00
804;BME280;25687;49.976;8.240;2023-02-21T00:05:21;100592.97;;;4.97;100.00
804;BME280;25687;49.976;8.240;2023-02-21T00:08:05;100590.50;;;4.94;100.00
804;BME280;25687;49.976;8.240;2023-02-21T00:10:49;100593.69;;;5.02;100.00
804;BME280;25687;49.976;8.240;2023-02-21T00:13:37;100590.50;;;4.94;100.00
804;BME280;25687;49.976;8.240;2023-02-21T00:16:21;100584.63;;;4.89;100.00
804;BME280;25687;49.976;8.240;2023-02-21T00:19:06;100583.78;;;4.90;100.00
804;BME280;25687;49.976;8.240;2023-02-21T00:21:50;100569.34;;;4.90;100.00
804;BME280;25687;49.976;8.240;2023-02-21T00:24:33;100575.19;;;4.94;100.00
804;BME280;25687;49.976;8.240;2023-02-21T00:27:17;100570.78;;;5.00;100.00
804;BME280;25687;49.976;8.240;2023-02-21T00:30:02;100573.13;;;5.08;100.00
804;BME280;25687;49.976;8.240;2023-02-21T00:32:46;100569.88;;;5.03;100.00
804;BME280;25687;49.976;8.240;2023-02-21T00:35:30;100568.13;;;5.05;100.00
804;BME280;25687;49.976;8.240;2023-02-21T00:38:14;100566.44;;;5.04;100.00
804;BME280;25687;49.976;8.240;2023-02-21T00:40:57;100563.75;;;5.10;100.00
804;BME280;25687;49.976;8.240;2023-02-21T00:43:41;100555.28;;;5.08;100.00
804;BME280;25687;49.976;8.240;2023-02-21T00:46:25;100556.94;;;5.11;100.00
804;BME280;25687;49.976;8.240;2023-02-21T00:49:09;100562.94;;;5.10;100.00
804;BME280;25687;49.976;8.240;2023-02-21T00:51:54;100559.25;;;5.20;100.00
804;BME280;25687;49.976;8.240;2023-02-21T00:54:37;100553.56;;;5.10;100.00
804;BME280;25687;49.976;8.240;2023-02-21T00:57:21;100565.44;;;5.11;100.00
804;BME280;25687;49.976;8.240;2023-02-21T01:00:08;100566.09;;;5.18;100.00
804;BME280;25687;49.976;8.240;2023-02-21T01:02:56;100564.28;;;5.23;100.00
804;BME280;25687;49.976;8.240;2023-02-21T01:05:40;100566.06;;;5.20;100.00
804;BME280;25687;49.976;8.240;2023-02-21T01:08:24;100566.97;;;5.19;100.00
804;BME280;25687;49.976;8.240;2023-02-21T01:11:14;100568.75;;;5.13;100.00
804;BME280;25687;49.976;8.240;2023-02-21T01:13:58;100563.50;;;5.20;100.00
804;BME280;25687;49.976;8.240;2023-02-21T01:16:42;100565.97;;;5.24;100.00
804;BME280;25687;49.976;8.240;2023-02-21T01:19:26;100566.00;;;5.23;100.00
804;BME280;25687;49.976;8.240;2023-02-21T01:22:10;100558.25;;;5.27;100.00
804;BME280;25687;49.976;8.240;2023-02-21T01:24:53;100570.94;;;5.29;100.00
804;BME280;25687;49.976;8.240;2023-02-21T01:27:37;100575.38;;;5.22;100.00
804;BME280;25687;49.976;8.240;2023-02-21T01:30:21;100578.59;;;5.29;100.00
804;BME280;25687;49.976;8.240;2023-02-21T01:33:05;100586.25;;;5.29;100.00
804;BME280;25687;49.976;8.240;2023-02-21T01:35:49;100582.13;;;5.25;100.00
804;BME280;25687;49.976;8.240;2023-02-21T01:38:34;100571.16;;;5.20;100.00
804;BME280;25687;49.976;8.240;2023-02-21T01:41:19;100575.59;;;5.13;100.00
804;BME280;25687;49.976;8.240;2023-02-21T01:44:06;100568.91;;;5.09;100.00
804;BME280;25687;49.976;8.240;2023-02-21T01:46:50;100573.94;;;5.10;100.00
804;BME280;25687;49.976;8.240;2023-02-21T01:49:35;100567.13;;;5.12;100.00
804;BME280;25687;49.976;8.240;2023-02-21T01:52:21;100561.31;;;5.06;100.00
804;BME280;25687;49.976;8.240;2023-02-21T01:55:06;100552.75;;;5.08;100.00
804;BME280;25687;49.976;8.240;2023-02-21T01:57:51;100553.59;;;5.07;100.00
804;BME280;25687;49.976;8.240;2023-02-21T02:00:36;100552.69;;;5.11;100.00
804;BME280;25687;49.976;8.240;2023-02-21T02:03:21;100558.75;;;5.06;100.00
804;BME280;25687;49.976;8.240;2023-02-21T02:06:11;100547.06;;;4.97;100.00
804;BME280;25687;49.976;8.240;2023-02-21T02:08:56;100539.53;;;4.92;100.00
804;BME280;25687;49.976;8.240;2023-02-21T02:15:04;100548.56;;;4.69;100.00
804;BME280;25687;49.976;8.240;2023-02-21T02:26:28;100550.38;;;4.25;100.00
804;BME280;25687;49.976;8.240;2023-02-21T02:35:11;100535.22;;;4.20;100.00
804;BME280;25687;49.976;8.240;2023-02-21T02:38:16;100543.72;;;4.19;100.00
804;BME280;25687;49.976;8.240;2023-02-21T02:40:57;100536.72;;;4.29;100.00
804;BME280;25687;49.976;8.240;2023-02-21T02:43:30;100533.53;;;4.18;100.00
804;BME280;25687;49.976;8.240;2023-02-21T02:46:06;100534.53;;;4.12;100.00
804;BME280;25687;49.976;8.240;2023-02-21T02:48:37;100542.41;;;4.00;100.00
804;BME280;25687;49.976;8.240;2023-02-21T02:51:08;100544.94;;;4.00;100.00
804;BME280;25687;49.976;8.240;2023-02-21T02:53:34;100550.56;;;4.16;100.00
804;BME280;25687;49.976;8.240;2023-02-21T02:56:05;100541.22;;;4.16;100.00
804;BME280;25687;49.976;8.240;2023-02-21T02:58:39;100543.91;;;4.09;100.00
804;BME280;25687;49.976;8.240;2023-02-21T03:01:29;100545.53;;;4.14;100.00
804;BME280;25687;49.976;8.240;2023-02-21T03:09:18;100545.44;;;4.17;100.00
804;BME280;25687;49.976;8.240;2023-02-21T03:12:19;100543.06;;;4.10;100.00
804;BME280;25687;49.976;8.240;2023-02-21T03:14:51;100551.59;;;4.06;100.00
804;BME280;25687;49.976;8.240;2023-02-21T03:17:23;100552.63;;;3.98;100.00
804;BME280;25687;49.976;8.240;2023-02-21T03:19:51;100554.41;;;3.95;100.00
804;BME280;25687;49.976;8.240;2023-02-21T03:22:21;100555.31;;;3.91;100.00
804;BME280;25687;49.976;8.240;2023-02-21T03:24:49;100557.91;;;3.87;100.00
804;BME280;25687;49.976;8.240;2023-02-21T03:27:16;100547.75;;;3.87;100.00
804;BME280;25687;49.976;8.240;2023-02-21T03:29:44;100543.63;;;3.80;100.00
804;BME280;25687;49.976;8.240;2023-02-21T03:32:16;100542.06;;;3.73;100.00
804;BME280;25687;49.976;8.240;2023-02-21T03:34:43;100546.41;;;3.68;100.00
804;BME280;25687;49.976;8.240;2023-02-21T03:37:17;100545.53;;;3.69;100.00
804;BME280;25687;49.976;8.240;2023-02-21T03:39:43;100542.28;;;3.61;100.00
804;BME280;25687;49.976;8.240;2023-02-21T03:42:08;100540.63;;;3.60;100.00
804;BME280;25687;49.976;8.240;2023-02-21T03:44:33;100544.16;;;3.52;100.00
804;BME280;25687;49.976;8.240;2023-02-21T03:46:59;100539.19;;;3.46;100.00
804;BME280;25687;49.976;8.240;2023-02-21T03:49:24;100536.66;;;3.45;100.00
804;BME280;25687;49.976;8.240;2023-02-21T03:51:49;100543.59;;;3.35;100.00
804;BME280;25687;49.976;8.240;2023-02-21T03:54:14;100525.94;;;3.29;100.00
804;BME280;25687;49.976;8.240;2023-02-21T03:56:40;100528.53;;;3.26;100.00
804;BME280;25687;49.976;8.240;2023-02-21T03:59:05;100526.81;;;3.26;100.00
804;BME280;25687;49.976;8.240;2023-02-21T04:01:30;100526.84;;;3.25;100.00
804;BME280;25687;49.976;8.240;2023-02-21T04:03:56;100525.16;;;3.23;100.00
804;BME280;25687;49.976;8.240;2023-02-21T04:06:21;100528.69;;;3.16;100.00
804;BME280;25687;49.976;8.240;2023-02-21T04:08:46;100532.16;;;3.11;100.00
804;BME280;25687;49.976;8.240;2023-02-21T04:11:11;100526.16;;;3.16;100.00
804;BME280;25687;49.976;8.240;2023-02-21T04:13:37;100535.63;;;3.05;100.00
804;BME280;25687;49.976;8.240;2023-02-21T04:16:03;100536.53;;;3.04;100.00
804;BME280;25687;49.976;8.240;2023-02-21T04:18:28;100540.97;;;2.89;100.00
804;BME280;25687;49.976;8.240;2023-02-21T04:20:53;100539.06;;;3.04;100.00
804;BME280;25687;49.976;8.240;2023-02-21T04:23:20;100536.53;;;3.04;100.00
804;BME280;25687;49.976;8.240;2023-02-21T04:25:46;100541.56;;;3.05;100.00
804;BME280;25687;49.976;8.240;2023-02-21T04:28:11;100542.44;;;3.04;100.00
804;BME280;25687;49.976;8.240;2023-02-21T04:30:36;100537.41;;;3.00;100.00
804;BME280;25687;49.976;8.240;2023-02-21T04:33:02;100539.09;;;3.01;100.00
804;BME280;25687;49.976;8.240;2023-02-21T04:35:28;100537.38;;;3.03;100.00
804;BME280;25687;49.976;8.240;2023-02-21T04:37:53;100539.13;;;2.99;100.00
804;BME280;25687;49.976;8.240;2023-02-21T04:40:19;100535.94;;;2.86;100.00
804;BME280;25687;49.976;8.240;2023-02-21T04:42:44;100534.25;;;2.87;100.00
804;BME280;25687;49.976;8.240;2023-02-21T04:45:09;100531.84;;;2.76;100.00
804;BME280;25687;49.976;8.240;2023-02-21T04:47:35;100533.56;;;2.74;100.00
804;BME280;25687;49.976;8.240;2023-02-21T04:50:00;100536.91;;;2.78;100.00
804;BME280;25687;49.976;8.240;2023-02-21T04:52:25;100532.78;;;2.72;100.00
804;BME280;25687;49.976;8.240;2023-02-21T04:54:51;100526.94;;;2.67;100.00
804;BME280;25687;49.976;8.240;2023-02-21T04:57:16;100525.31;;;2.61;100.00
804;BME280;25687;49.976;8.240;2023-02-21T04:59:41;100521.22;;;2.51;100.00
804;BME280;25687;49.976;8.240;2023-02-21T05:02:07;100526.38;;;2.46;100.00
804;BME280;25687;49.976;8.240;2023-02-21T05:04:34;100523.00;;;2.44;100.00
804;BME280;25687;49.976;8.240;2023-02-21T05:07:00;100519.59;;;2.45;100.00
804;BME280;25687;49.976;8.240;2023-02-21T05:09:41;100518.88;;;2.37;100.00
804;BME280;25687;49.976;8.240;2023-02-21T05:12:33;100519.84;;;2.30;100.00
804;BME280;25687;49.976;8.240;2023-02-21T05:14:59;100519.72;;;2.37;100.00
804;BME280;25687;49.976;8.240;2023-02-21T05:17:24;100517.13;;;2.42;100.00
804;BME280;25687;49.976;8.240;2023-02-21T05:19:49;100519.63;;;2.44;100.00
804;BME280;25687;49.976;8.240;2023-02-21T05:22:16;100517.91;;;2.47;100.00
804;BME280;25687;49.976;8.240;2023-02-21T05:24:44;100513.66;;;2.48;100.00
804;BME280;25687;49.976;8.240;2023-02-21T05:27:11;100516.16;;;2.49;100.00
804;BME280;25687;49.976;8.240;2023-02-21T05:29:40;100516.97;;;2.51;100.00
804;BME280;25687;49.976;8.240;2023-02-21T05:32:06;100518.63;;;2.54;100.00
804;BME280;25687;49.976;8.240;2023-02-21T05:34:31;100516.94;;;2.54;100.00
804;BME280;25687;49.976;8.240;2023-02-21T05:36:56;100516.06;;;2.57;100.00
804;BME280;25687;49.976;8.240;2023-02-21T05:39:22;100516.09;;;2.54;100.00
804;BME280;25687;49.976;8.240;2023-02-21T05:41:48;100512.75;;;2.52;100.00
804;BME280;25687;49.976;8.240;2023-02-21T05:44:13;100514.44;;;2.51;100.00
804;BME280;25687;49.976;8.240;2023-02-21T05:46:39;100522.06;;;2.51;100.00
804;BME280;25687;49.976;8.240;2023-02-21T05:49:04;100527.19;;;2.47;100.00
804;BME280;25687;49.976;8.240;2023-02-21T05:51:38;100523.00;;;2.44;100.00
804;BME280;25687;49.976;8.240;2023-02-21T05:54:05;100535.63;;;2.50;100.00
804;BME280;25687;49.976;8.240;2023-02-21T05:56:36;100527.22;;;2.45;100.00
804;BME280;25687;49.976;8.240;2023-02-21T05:59:02;100534.00;;;2.46;100.00
804;BME280;25687;49.976;8.240;2023-02-21T06:01:27;100539.94;;;2.44;100.00
804;BME280;25687;49.976;8.240;2023-02-21T06:03:52;100535.69;;;2.44;100.00
804;BME280;25687;49.976;8.240;2023-02-21T06:06:18;100540.81;;;2.42;100.00
804;BME280;25687;49.976;8.240;2023-02-21T06:08:46;100542.50;;;2.40;100.00
804;BME280;25687;49.976;8.240;2023-02-21T06:11:14;100538.34;;;2.36;100.00
804;BME280;25687;49.976;8.240;2023-02-21T06:13:40;100540.88;;;2.39;100.00
804;BME280;25687;49.976;8.240;2023-02-21T06:16:06;100540.19;;;2.25;100.00
804;BME280;25687;49.976;8.240;2023-02-21T06:18:31;100539.34;;;2.24;100.00
804;BME280;25687;49.976;8.240;2023-02-21T06:20:57;100546.16;;;2.22;100.00
804;BME280;25687;49.976;8.240;2023-02-21T06:23:22;100541.84;;;2.28;100.00
804;BME280;25687;49.976;8.240;2023-02-21T06:25:47;100536.78;;;2.28;100.00
804;BME280;25687;49.976;8.240;2023-02-21T06:28:13;100543.44;;;2.36;100.00
804;BME280;25687;49.976;8.240;2023-02-21T06:30:38;100539.16;;;2.40;100.00
804;BME280;25687;49.976;8.240;2023-02-21T06:33:03;100540.94;;;2.33;100.00
804;BME280;25687;49.976;8.240;2023-02-21T06:35:29;100540.09;;;2.33;100.00
804;BME280;25687;49.976;8.240;2023-02-21T06:37:54;100544.22;;;2.40;100.00
804;BME280;25687;49.976;8.240;2023-02-21T06:40:19;100540.75;;;2.47;100.00
804;BME280;25687;49.976;8.240;2023-02-21T06:42:45;100543.19;;;2.55;100.00
804;BME280;25687;49.976;8.240;2023-02-21T06:45:10;100539.81;;;2.53;100.00
804;BME280;25687;49.976;8.240;2023-02-21T06:47:35;100543.13;;;2.60;100.00
804;BME280;25687;49.976;8.240;2023-02-21T06:50:01;100541.38;;;2.63;100.00
804;BME280;25687;49.976;8.240;2023-02-21T06:52:26;100543.81;;;2.69;100.00
804;BME280;25687;49.976;8.240;2023-02-21T06:54:51;100549.66;;;2.74;100.00
804;BME280;25687;49.976;8.240;2023-02-21T06:57:17;100547.13;;;2.74;100.00
804;BME280;25687;49.976;8.240;2023-02-21T06:59:42;100550.41;;;2.81;100.00
804;BME280;25687;49.976;8.240;2023-02-21T07:02:14;100549.44;;;2.88;100.00
804;BME280;25687;49.976;8.240;2023-02-21T07:04:42;100544.09;;;3.07;100.00
804;BME280;25687;49.976;8.240;2023-02-21T07:07:07;100547.41;;;3.11;100.00
804;BME280;25687;49.976;8.240;2023-02-21T07:09:33;100549.13;;;3.10;100.00
804;BME280;25687;49.976;8.240;2023-02-21T07:11:58;100548.06;;;3.22;100.00
804;BME280;25687;49.976;8.240;2023-02-21T07:14:23;100549.56;;;3.32;100.00
804;BME280;25687;49.976;8.240;2023-02-21T07:16:49;100539.31;;;3.40;100.00
804;BME280;25687;49.976;8.240;2023-02-21T07:19:15;100538.22;;;3.52;100.00
804;BME280;25687;49.976;8.240;2023-02-21T07:21:42;100538.88;;;3.62;100.00
804;BME280;25687;49.976;8.240;2023-02-21T07:24:07;100527.53;;;3.78;100.00
804;BME280;25687;49.976;8.240;2023-02-21T07:26:32;100523.06;;;3.91;100.00
804;BME280;25687;49.976;8.240;2023-02-21T07:28:57;100527.06;;;4.03;100.00
804;BME280;25687;49.976;8.240;2023-02-21T07:31:23;100525.91;;;4.18;100.00
804;BME280;25687;49.976;8.240;2023-02-21T07:33:48;100521.22;;;4.39;100.00
804;BME280;25687;49.976;8.240;2023-02-21T07:36:13;100520.44;;;4.35;100.00
804;BME280;25687;49.976;8.240;2023-02-21T07:38:39;100525.22;;;4.50;100.00
804;BME280;25687;49.976;8.240;2023-02-21T07:41:04;100527.97;;;4.77;100.00
804;BME280;25687;49.976;8.240;2023-02-21T07:43:30;100521.66;;;5.28;100.00
804;BME280;25687;49.976;8.240;2023-02-21T07:45:56;100522.09;;;6.07;100.00
804;BME280;25687;49.976;8.240;2023-02-21T07:48:22;100518.28;;;6.49;100.00
804;BME280;25687;49.976;8.240;2023-02-21T07:50:47;100519.94;;;6.78;100.00
804;BME280;25687;49.976;8.240;2023-02-21T07:53:14;100520.03;;;6.75;100.00
804;BME280;25687;49.976;8.240;2023-02-21T07:55:40;100523.19;;;6.84;100.00
804;BME280;25687;49.976;8.240;2023-02-21T07:58:05;100530.16;;;6.78;100.00
804;BME280;25687;49.976;8.240;2023-02-21T08:00:31;100526.13;;;6.71;100.00
804;BME280;25687;49.976;8.240;2023-02-21T08:02:56;100524.59;;;6.66;100.00
804;BME280;25687;49.976;8.240;2023-02-21T08:05:22;100525.03;;;6.52;100.00
804;BME280;25687;49.976;8.240;2023-02-21T08:07:48;100529.19;;;6.26;100.00
804;BME280;25687;49.976;8.240;2023-02-21T08:10:20;100523.81;;;6.07;100.00
804;BME280;25687;49.976;8.240;2023-02-21T08:12:45;100526.25;;;6.10;100.00
804;BME280;25687;49.976;8.240;2023-02-21T08:15:10;100527.13;;;6.10;100.00
804;BME280;25687;49.976;8.240;2023-02-21T08:17:36;100527.38;;;6.01;100.00
804;BME280;25687;49.976;8.240;2023-02-21T08:20:01;100525.63;;;6.03;100.00
804;BME280;25687;49.976;8.240;2023-02-21T08:22:30;100527.00;;;6.13;100.00
804;BME280;25687;49.976;8.240;2023-02-21T08:24:55;100530.44;;;6.12;100.00
804;BME280;25687;49.976;8.240;2023-02-21T08:27:21;100529.09;;;6.01;100.00
804;BME280;25687;49.976;8.240;2023-02-21T08:29:49;100530.63;;;6.06;100.00
804;BME280;25687;49.976;8.240;2023-02-21T08:32:15;100520.34;;;6.38;100.00
804;BME280;25687;49.976;8.240;2023-02-21T08:34:40;100518.56;;;6.40;100.00
804;BME280;25687;49.976;8.240;2023-02-21T08:37:05;100524.66;;;6.64;100.00
804;BME280;25687;49.976;8.240;2023-02-21T08:39:38;100519.22;;;6.75;100.00
804;BME280;25687;49.976;8.240;2023-02-21T08:42:03;100515.66;;;6.79;100.00
804;BME280;25687;49.976;8.240;2023-02-21T08:44:29;100520.31;;;6.93;100.00
804;BME280;25687;49.976;8.240;2023-02-21T08:46:54;100515.13;;;6.96;100.00
804;BME280;25687;49.976;8.240;2023-02-21T08:49:19;100511.28;;;7.09;100.00
804;BME280;25687;49.976;8.240;2023-02-21T08:51:45;100510.13;;;7.18;100.00
804;BME280;25687;49.976;8.240;2023-02-21T08:54:11;100503.03;;;7.50;100.00
804;BME280;25687;49.976;8.240;2023-02-21T08:56:36;100501.44;;;7.95;100.00
804;BME280;25687;49.976;8.240;2023-02-21T08:59:02;100504.72;;;8.21;100.00
804;BME280;25687;49.976;8.240;2023-02-21T09:01:33;100501.09;;;8.04;100.00
804;BME280;25687;49.976;8.240;2023-02-21T09:04:00;100502.22;;;8.19;100.00
804;BME280;25687;49.976;8.240;2023-02-21T09:06:25;100503.47;;;8.55;100.00
804;BME280;25687;49.976;8.240;2023-02-21T09:08:50;100502.59;;;8.77;100.00
804;BME280;25687;49.976;8.240;2023-02-21T09:11:16;100497.09;;;9.67;100.00
804;BME280;25687;49.976;8.240;2023-02-21T09:13:41;100489.31;;;11.65;100.00
804;BME280;25687;49.976;8.240;2023-02-21T09:16:06;100491.97;;;13.49;100.00
804;BME280;25687;49.976;8.240;2023-02-21T09:18:32;100482.63;;;14.97;89.90
804;BME280;25687;49.976;8.240;2023-02-21T09:20:57;100493.50;;;16.64;76.98
804;BME280;25687;49.976;8.240;2023-02-21T09:23:24;100486.03;;;17.97;62.03
804;BME280;25687;49.976;8.240;2023-02-21T09:25:50;100491.47;;;19.54;54.63
804;BME280;25687;49.976;8.240;2023-02-21T09:28:16;100483.25;;;19.27;51.83
804;BME280;25687;49.976;8.240;2023-02-21T09:30:41;100480.63;;;19.68;49.13
804;BME280;25687;49.976;8.240;2023-02-21T09:33:08;100485.69;;;20.79;44.91
804;BME280;25687;49.976;8.240;2023-02-21T09:35:34;100483.63;;;20.83;44.54
804;BME280;25687;49.976;8.240;2023-02-21T09:38:00;100490.31;;;22.61;39.39
804;BME280;25687;49.976;8.240;2023-02-21T09:43:06;100491.84;;;20.68;44.95
804;BME280;25687;49.976;8.240;2023-02-21T09:45:34;100483.75;;;20.71;44.73
804;BME280;25687;49.976;8.240;2023-02-21T09:48:06;100485.13;;;20.46;45.12
804;BME280;25687;49.976;8.240;2023-02-21T09:50:45;100486.16;;;21.02;44.33
804;BME280;25687;49.976;8.240;2023-02-21T09:53:17;100483.88;;;22.19;42.50
804;BME280;25687;49.976;8.240;2023-02-21T09:55:44;100485.44;;;21.75;41.95
804;BME280;25687;49.976;8.240;2023-02-21T09:58:12;100484.56;;;20.91;44.66
804;BME280;25687;49.976;8.240;2023-02-21T10:00:39;100484.97;;;21.62;42.83
804;BME280;25687;49.976;8.240;2023-02-21T10:05:49;100482.59;;;21.69;39.74
804;BME280;25687;49.976;8.240;2023-02-21T10:11:15;100482.69;;;23.02;38.40
804;BME280;25687;49.976;8.240;2023-02-21T10:16:34;100492.00;;;21.62;40.51
804;BME280;25687;49.976;8.240;2023-02-21T10:19:51;100487.44;;;21.64;40.76
804;BME280;25687;49.976;8.240;2023-02-21T10:22:19;100483.13;;;21.90;40.22
804;BME280;25687;49.976;8.240;2023-02-21T10:24:47;100486.50;;;23.08;38.71
804;BME280;25687;49.976;8.240;2023-02-21T10:27:25;100483.59;;;24.13;36.57
804;BME280;25687;49.976;8.240;2023-02-21T10:30:06;100490.25;;;25.06;35.00
804;BME280;25687;49.976;8.240;2023-02-21T10:32:35;100494.69;;;22.78;38.38
804;BME280;25687;49.976;8.240;2023-02-21T10:35:01;100491.16;;;20.46;42.76
804;BME280;25687;49.976;8.240;2023-02-21T10:37:52;100477.97;;;18.00;50.27
804;BME280;25687;49.976;8.240;2023-02-21T10:40:43;100487.03;;;15.60;68.34
804;BME280;25687;49.976;8.240;2023-02-21T10:43:16;100494.00;;;15.08;81.08
804;BME280;25687;49.976;8.240;2023-02-21T10:45:57;100491.50;;;14.80;86.53
804;BME280;25687;49.976;8.240;2023-02-21T10:48:27;100489.44;;;13.91;91.44
804;BME280;25687;49.976;8.240;2023-02-21T10:51:15;100483.19;;;13.66;95.19
804;BME280;25687;49.976;8.240;2023-02-21T10:53:45;100492.31;;;12.83;100.00
804;BME280;25687;49.976;8.240;2023-02-21T10:58:45;100484.84;;;12.48;100.00
804;BME280;25687;49.976;8.240;2023-02-21T11:01:13;100475.47;;;12.15;100.00
804;BME280;25687;49.976;8.240;2023-02-21T11:03:48;100472.31;;;11.94;100.00
804;BME280;25687;49.976;8.240;2023-02-21T11:08:49;100464.47;;;11.48;100.00
804;BME280;25687;49.976;8.240;2023-02-21T11:11:15;100467.56;;;11.86;100.00
804;BME280;25687;49.976;8.240;2023-02-21T11:13:41;100460.34;;;12.09;100.00
804;BME280;25687;49.976;8.240;2023-02-21T11:16:17;100460.41;;;11.91;100.00
804;BME280;25687;49.976;8.240;2023-02-21T11:18:43;100455.38;;;12.06;100.00
804;BME280;25687;49.976;8.240;2023-02-21T11:21:12;100450.38;;;12.03;100.00
804;BME280;25687;49.976;8.240;2023-02-21T11:23:44;100454.00;;;11.83;100.00
804;BME280;25687;49.976;8.240;2023-02-21T11:26:11;100440.22;;;11.68;100.00
804;BME280;25687;49.976;8.240;2023-02-21T11:28:42;100439.88;;;11.90;100.00
804;BME280;25687;49.976;8.240;2023-02-21T11:34:03;100434.09;;;12.02;100.00
804;BME280;25687;49.976;8.240;2023-02-21T11:36:31;100435.47;;;12.08;100.00
804;BME280;25687;49.976;8.240;2023-02-21T11:39:00;100427.72;;;11.92;100.00
804;BME280;25687;49.976;8.240;2023-02-21T11:41:30;100415.88;;;11.73;100.00
804;BME280;25687;49.976;8.240;2023-02-21T11:43:57;100422.53;;;12.09;100.00
804;BME280;25687;49.976;8.240;2023-02-21T11:46:44;100415.94;;;11.88;100.00
804;BME280;25687;49.976;8.240;2023-02-21T11:49:17;100418.94;;;11.96;100.00
804;BME280;25687;49.976;8.240;2023-02-21T11:51:53;100412.88;;;11.81;100.00
804;BME280;25687;49.976;8.240;2023-02-21T11:54:26;100412.00;;;11.81;100.00
804;BME280;25687;49.976;8.240;2023-02-21T11:57:06;100408.41;;;12.01;100.00
804;BME280;25687;49.976;8.240;2023-02-21T11:59:53;100401.94;;;12.08;100.00
804;BME280;25687;49.976;8.240;2023-02-21T12:02:45;100390.34;;;12.31;100.00
804;BME280;25687;49.976;8.240;2023-02-21T12:05:26;100388.63;;;12.32;100.00
804;BME280;25687;49.976;8.240;2023-02-21T12:16:36;100367.16;;;12.01;100.00
804;BME280;25687;49.976;8.240;2023-02-21T12:19:20;100372.47;;;11.98;100.00
804;BME280;25687;49.976;8.240;2023-02-21T12:27:47;100351.91;;;12.12;100.00
804;BME280;25687;49.976;8.240;2023-02-21T12:33:00;100355.44;;;12.25;100.00
804;BME280;25687;49.976;8.240;2023-02-21T12:38:43;100341.84;;;12.52;100.00
804;BME280;25687;49.976;8.240;2023-02-21T12:41:37;100336.50;;;12.55;100.00
804;BME280;25687;49.976;8.240;2023-02-21T12:44:14;100336.06;;;12.78;100.00
804;BME280;25687;49.976;8.240;2023-02-21T12:49:57;100337.97;;;12.59;100.00
804;BME280;25687;49.976;8.240;2023-02-21T12:52:29;100327.19;;;12.67;100.00
804;BME280;25687;49.976;8.240;2023-02-21T12:55:23;100322.66;;;12.56;100.00
804;BME280;25687;49.976;8.240;2023-02-21T12:57:59;100312.63;;;12.66;100.00
804;BME280;25687;49.976;8.240;2023-02-21T13:00:33;100316.97;;;12.66;100.00
804;BME280;25687;49.976;8.240;2023-02-21T13:05:45;100294.22;;;12.58;100.00
804;BME280;25687;49.976;8.240;2023-02-21T13:08:18;100301.75;;;12.75;100.00
804;BME280;25687;49.976;8.240;2023-02-21T13:11:30;100295.75;;;12.89;100.00
804;BME280;25687;49.976;8.240;2023-02-21T13:13:48;100285.75;;;13.12;100.00
804;BME280;25687;49.976;8.240;2023-02-21T13:16:14;100275.81;;;13.33;100.00
804;BME280;25687;49.976;8.240;2023-02-21T13:18:49;100271.88;;;13.42;100.00
804;BME280;25687;49.976;8.240;2023-02-21T13:21:27;100276.41;;;13.38;100.00
804;BME280;25687;49.976;8.240;2023-02-21T13:24:24;100279.63;;;13.28;100.00
804;BME280;25687;49.976;8.240;2023-02-21T13:29:33;100274.19;;;13.32;100.00
804;BME280;25687;49.976;8.240;2023-02-21T13:32:07;100261.63;;;13.40;100.00
804;BME280;25687;49.976;8.240;2023-02-21T13:34:42;100266.34;;;13.61;100.00
804;BME280;25687;49.976;8.240;2023-02-21T13:37:17;100265.72;;;13.58;100.00
804;BME280;25687;49.976;8.240;2023-02-21T13:39:48;100254.88;;;13.65;100.00
804;BME280;25687;49.976;8.240;2023-02-21T13:42:21;100261.31;;;13.72;100.00
804;BME280;25687;49.976;8.240;2023-02-21T13:45:32;100254.41;;;13.46;100.00
804;BME280;25687;49.976;8.240;2023-02-21T13:53:27;100238.22;;;13.56;100.00
804;BME280;25687;49.976;8.240;2023-02-21T13:58:37;100230.69;;;13.66;100.00
804;BME280;25687;49.976;8.240;2023-02-21T14:03:49;100230.28;;;13.72;100.00
804;BME280;25687;49.976;8.240;2023-02-21T14:06:23;100218.50;;;13.68;100.00
804;BME280;25687;49.976;8.240;2023-02-21T14:08:53;100217.53;;;13.56;100.00
804;BME280;25687;49.976;8.240;2023-02-21T14:11:25;100216.94;;;13.79;100.00
804;BME280;25687;49.976;8.240;2023-02-21T14:14:01;100215.91;;;13.68;100.00
804;BME280;25687;49.976;8.240;2023-02-21T14:16:32;100218.50;;;13.68;100.00
804;BME280;25687;49.976;8.240;2023-02-21T14:19:09;100212.13;;;13.87;100.00
804;BME280;25687;49.976;8.240;2023-02-21T14:21:47;100215.91;;;13.68;100.00
804;BME280;25687;49.976;8.240;2023-02-21T14:24:27;100207.00;;;13.72;100.00
804;BME280;25687;49.976;8.240;2023-02-21T14:26:55;100206.59;;;13.79;100.00
804;BME280;25687;49.976;8.240;2023-02-21T14:29:34;100216.59;;;13.58;100.00
804;BME280;25687;49.976;8.240;2023-02-21T14:39:52;100205.75;;;13.65;100.00
804;BME280;25687;49.976;8.240;2023-02-21T14:45:17;100198.16;;;13.90;100.00
804;BME280;25687;49.976;8.240;2023-02-21T14:53:39;100185.94;;;13.79;100.00
804;BME280;25687;49.976;8.240;2023-02-21T15:04:37;100178.16;;;13.92;100.00
804;BME280;25687;49.976;8.240;2023-02-21T15:07:23;100184.06;;;13.81;100.00
804;BME280;25687;49.976;8.240;2023-02-21T15:10:28;100175.56;;;13.92;100.00
804;BME280;25687;49.976;8.240;2023-02-21T15:15:33;100168.47;;;14.08;100.00
804;BME280;25687;49.976;8.240;2023-02-21T15:18:06;100168.84;;;14.28;100.00
804;BME280;25687;49.976;8.240;2023-02-21T15:20:35;100169.41;;;14.57;99.55
804;BME280;25687;49.976;8.240;2023-02-21T15:23:10;100167.91;;;14.79;97.33
804;BME280;25687;49.976;8.240;2023-02-21T15:25:37;100164.34;;;14.93;96.79